La Louila Airport


Codes: FCBA/
Name: La Louila Airport
City: La Louila
Country: Congo [Republic]
Elevation: 984 ft.

Photos at La Louila Airport


   Photos courtesy of SpottingLog. You can add your own sightings and photos by signing up for a free trial today.



No photos found.

Weather at La Louila Airport


Time (UTC)DescriptionTempratureWindCloud coverageVisibilityPressureHumidity
21-Jun-2024 12:00Broken Clouds32°C4 mph, SW56%10000m1013hPa42%
21-Jun-2024 15:00Scattered Clouds34°C2 mph, W30%10000m1010hPa35%
21-Jun-2024 18:00Few Clouds29°C4 mph, W22%10000m1009hPa46%
21-Jun-2024 21:00Clear Sky26°C2 mph, SW5%10000m1011hPa53%
22-Jun-2024 00:00Clear Sky24°C2 mph, SW4%10000m1011hPa66%
22-Jun-2024 03:00Clear Sky21°C2 mph, SW2%10000m1012hPa80%
22-Jun-2024 06:00Clear Sky22°C2 mph, SW7%10000m1014hPa82%
22-Jun-2024 09:00Scattered Clouds28°C7 mph, W34%10000m1014hPa55%
22-Jun-2024 12:00Few Clouds33°C7 mph, W23%10000m1010hPa39%
22-Jun-2024 15:00Broken Clouds34°C7 mph, W58%10000m1009hPa35%
22-Jun-2024 18:00Scattered Clouds27°C4 mph, NW39%10000m1011hPa54%
22-Jun-2024 21:00Few Clouds25°C4 mph, SW16%10000m1012hPa61%
23-Jun-2024 00:00Few Clouds23°C4 mph, SW16%10000m1012hPa70%
23-Jun-2024 03:00Clear Sky21°C2 mph, SW5%10000m1012hPa81%
23-Jun-2024 06:00Few Clouds21°C2 mph, SW16%10000m1013hPa79%
23-Jun-2024 09:00Scattered Clouds29°C4 mph, W39%10000m1013hPa49%
23-Jun-2024 12:00Broken Clouds33°C4 mph, SW55%10000m1010hPa34%
23-Jun-2024 15:00Scattered Clouds34°C4 mph, W37%10000m1008hPa31%
23-Jun-2024 18:00Scattered Clouds27°C4 mph, NW26%10000m1010hPa48%
23-Jun-2024 21:00Clear Sky25°C4 mph, SW7%10000m1011hPa53%
24-Jun-2024 00:00Clear Sky23°C2 mph, W7%10000m1011hPa60%
24-Jun-2024 03:00Scattered Clouds21°C2 mph, SW27%10000m1012hPa70%
24-Jun-2024 06:00Scattered Clouds21°C2 mph, SW41%10000m1014hPa73%
24-Jun-2024 09:00Scattered Clouds28°C4 mph, W45%10000m1013hPa51%
24-Jun-2024 12:00Scattered Clouds33°C4 mph, SW41%10000m1010hPa38%
24-Jun-2024 15:00Few Clouds34°C4 mph, W15%10000m1008hPa36%
24-Jun-2024 18:00Few Clouds27°C4 mph, W18%10000m1009hPa53%
24-Jun-2024 21:00Few Clouds25°C2 mph, W14%10000m1010hPa58%
25-Jun-2024 00:00Few Clouds23°C2 mph, SW12%10000m1011hPa65%
25-Jun-2024 03:00Scattered Clouds22°C2 mph, W27%10000m1011hPa73%
25-Jun-2024 06:00Broken Clouds22°C0 mph, W61%10000m1013hPa74%
25-Jun-2024 09:00Broken Clouds29°C4 mph, W53%10000m1013hPa50%
25-Jun-2024 12:00Broken Clouds33°C4 mph, SW60%10000m1010hPa40%
25-Jun-2024 15:00Overcast Clouds33°C4 mph, W100%10000m1008hPa40%
25-Jun-2024 18:00Overcast Clouds28°C4 mph, W99%10000m1009hPa55%
25-Jun-2024 21:00Overcast Clouds26°C2 mph, W99%10000m1010hPa59%
26-Jun-2024 00:00Overcast Clouds24°C2 mph, SW89%10000m1011hPa66%
26-Jun-2024 03:00Scattered Clouds22°C2 mph, W37%10000m1012hPa74%
26-Jun-2024 06:00Scattered Clouds22°C2 mph, SW29%10000m1013hPa75%
26-Jun-2024 09:00Clear Sky29°C4 mph, W8%10000m1013hPa52%